sensor_id;sensor_type;location;lat;lon;timestamp;temperature;humidity
25092;DHT22;13082;52.374;4.946;2023-04-25T00:02:03;8.20;99.90
25092;DHT22;13082;52.374;4.946;2023-04-25T00:04:29;8.20;99.90
25092;DHT22;13082;52.374;4.946;2023-04-25T00:06:55;8.20;99.90
25092;DHT22;13082;52.374;4.946;2023-04-25T00:09:22;8.20;99.90
25092;DHT22;13082;52.374;4.946;2023-04-25T00:11:48;8.20;99.90
25092;DHT22;13082;52.374;4.946;2023-04-25T00:14:14;8.20;99.90
25092;DHT22;13082;52.374;4.946;2023-04-25T00:16:39;8.30;99.90
25092;DHT22;13082;52.374;4.946;2023-04-25T00:19:06;8.20;99.90
25092;DHT22;13082;52.374;4.946;2023-04-25T00:21:33;8.20;99.90
25092;DHT22;13082;52.374;4.946;2023-04-25T00:23:59;8.10;99.90
25092;DHT22;13082;52.374;4.946;2023-04-25T00:26:25;8.10;99.90
25092;DHT22;13082;52.374;4.946;2023-04-25T00:28:51;8.10;99.90
25092;DHT22;13082;52.374;4.946;2023-04-25T00:31:16;8.10;99.90
25092;DHT22;13082;52.374;4.946;2023-04-25T00:33:42;8.10;99.90
25092;DHT22;13082;52.374;4.946;2023-04-25T00:36:08;8.10;99.90
25092;DHT22;13082;52.374;4.946;2023-04-25T00:38:33;8.00;99.90
25092;DHT22;13082;52.374;4.946;2023-04-25T00:40:59;8.00;99.90
25092;DHT22;13082;52.374;4.946;2023-04-25T00:43:26;8.00;99.90
25092;DHT22;13082;52.374;4.946;2023-04-25T00:45:53;8.00;99.90
25092;DHT22;13082;52.374;4.946;2023-04-25T00:48:21;8.00;99.90
25092;DHT22;13082;52.374;4.946;2023-04-25T00:50:55;8.00;99.90
25092;DHT22;13082;52.374;4.946;2023-04-25T00:53:23;8.00;99.90
25092;DHT22;13082;52.374;4.946;2023-04-25T00:55:50;8.10;99.90
25092;DHT22;13082;52.374;4.946;2023-04-25T00:58:19;8.10;99.90
25092;DHT22;13082;52.374;4.946;2023-04-25T01:00:47;8.10;99.90
25092;DHT22;13082;52.374;4.946;2023-04-25T01:03:13;8.10;99.90
25092;DHT22;13082;52.374;4.946;2023-04-25T01:05:42;8.10;99.90
25092;DHT22;13082;52.374;4.946;2023-04-25T01:08:09;8.10;99.90
25092;DHT22;13082;52.374;4.946;2023-04-25T01:10:35;8.10;99.90
25092;DHT22;13082;52.374;4.946;2023-04-25T01:13:01;8.10;99.90
25092;DHT22;13082;52.374;4.946;2023-04-25T01:15:26;8.10;99.90
25092;DHT22;13082;52.374;4.946;2023-04-25T01:17:52;8.10;99.90
25092;DHT22;13082;52.374;4.946;2023-04-25T01:20:21;8.20;99.90
25092;DHT22;13082;52.374;4.946;2023-04-25T01:22:47;8.20;99.90
25092;DHT22;13082;52.374;4.946;2023-04-25T01:25:13;8.20;99.90
25092;DHT22;13082;52.374;4.946;2023-04-25T01:27:40;8.20;99.90
25092;DHT22;13082;52.374;4.946;2023-04-25T01:30:07;8.20;99.90
25092;DHT22;13082;52.374;4.946;2023-04-25T01:32:33;8.20;99.90
25092;DHT22;13082;52.374;4.946;2023-04-25T01:35:08;8.20;99.90
25092;DHT22;13082;52.374;4.946;2023-04-25T01:37:41;8.10;99.90
25092;DHT22;13082;52.374;4.946;2023-04-25T01:40:08;8.10;99.90
25092;DHT22;13082;52.374;4.946;2023-04-25T01:42:36;8.10;99.90
25092;DHT22;13082;52.374;4.946;2023-04-25T01:45:02;8.10;99.90
25092;DHT22;13082;52.374;4.946;2023-04-25T01:47:28;8.10;99.90
25092;DHT22;13082;52.374;4.946;2023-04-25T01:49:54;8.10;99.90
25092;DHT22;13082;52.374;4.946;2023-04-25T01:52:20;8.10;99.90
25092;DHT22;13082;52.374;4.946;2023-04-25T01:54:45;8.00;99.90
25092;DHT22;13082;52.374;4.946;2023-04-25T01:57:12;8.10;99.90
25092;DHT22;13082;52.374;4.946;2023-04-25T01:59:37;8.00;99.90
25092;DHT22;13082;52.374;4.946;2023-04-25T02:02:03;7.90;99.90
25092;DHT22;13082;52.374;4.946;2023-04-25T02:04:32;7.90;99.90
25092;DHT22;13082;52.374;4.946;2023-04-25T02:06:58;7.90;99.90
25092;DHT22;13082;52.374;4.946;2023-04-25T02:09:24;7.90;99.90
25092;DHT22;13082;52.374;4.946;2023-04-25T02:11:49;7.90;99.90
25092;DHT22;13082;52.374;4.946;2023-04-25T02:14:15;7.90;99.90
25092;DHT22;13082;52.374;4.946;2023-04-25T02:16:41;7.90;99.90
25092;DHT22;13082;52.374;4.946;2023-04-25T02:19:09;7.90;99.90
25092;DHT22;13082;52.374;4.946;2023-04-25T02:21:35;8.00;99.90
25092;DHT22;13082;52.374;4.946;2023-04-25T02:24:01;7.90;99.90
25092;DHT22;13082;52.374;4.946;2023-04-25T02:26:27;8.00;99.90
25092;DHT22;13082;52.374;4.946;2023-04-25T02:28:53;8.00;99.90
25092;DHT22;13082;52.374;4.946;2023-04-25T02:31:18;8.00;99.90
25092;DHT22;13082;52.374;4.946;2023-04-25T02:33:44;8.00;99.90
25092;DHT22;13082;52.374;4.946;2023-04-25T02:36:10;8.10;99.90
25092;DHT22;13082;52.374;4.946;2023-04-25T02:38:35;8.00;99.90
25092;DHT22;13082;52.374;4.946;2023-04-25T02:41:01;8.00;99.90
25092;DHT22;13082;52.374;4.946;2023-04-25T02:43:26;7.90;99.90
25092;DHT22;13082;52.374;4.946;2023-04-25T02:45:52;7.80;99.90
25092;DHT22;13082;52.374;4.946;2023-04-25T02:48:18;7.80;99.90
25092;DHT22;13082;52.374;4.946;2023-04-25T02:50:43;7.70;99.90
25092;DHT22;13082;52.374;4.946;2023-04-25T02:53:10;7.70;99.90
25092;DHT22;13082;52.374;4.946;2023-04-25T02:55:35;7.70;99.90
25092;DHT22;13082;52.374;4.946;2023-04-25T02:58:01;7.60;99.90
25092;DHT22;13082;52.374;4.946;2023-04-25T03:00:27;7.60;99.90
25092;DHT22;13082;52.374;4.946;2023-04-25T03:02:52;7.60;99.90
25092;DHT22;13082;52.374;4.946;2023-04-25T03:05:18;7.70;99.90
25092;DHT22;13082;52.374;4.946;2023-04-25T03:07:44;7.70;99.90
25092;DHT22;13082;52.374;4.946;2023-04-25T03:10:11;7.70;99.90
25092;DHT22;13082;52.374;4.946;2023-04-25T03:12:37;7.80;99.90
25092;DHT22;13082;52.374;4.946;2023-04-25T03:15:02;7.80;99.90
25092;DHT22;13082;52.374;4.946;2023-04-25T03:17:29;7.90;99.90
25092;DHT22;13082;52.374;4.946;2023-04-25T03:19:55;7.90;99.90
25092;DHT22;13082;52.374;4.946;2023-04-25T03:22:21;7.90;99.90
25092;DHT22;13082;52.374;4.946;2023-04-25T03:24:47;7.90;99.90
25092;DHT22;13082;52.374;4.946;2023-04-25T03:27:13;7.80;99.90
25092;DHT22;13082;52.374;4.946;2023-04-25T03:29:38;7.70;99.90
25092;DHT22;13082;52.374;4.946;2023-04-25T03:32:05;7.50;99.90
25092;DHT22;13082;52.374;4.946;2023-04-25T03:34:31;7.30;99.90
25092;DHT22;13082;52.374;4.946;2023-04-25T03:36:56;7.10;99.90
25092;DHT22;13082;52.374;4.946;2023-04-25T03:39:22;7.00;99.90
25092;DHT22;13082;52.374;4.946;2023-04-25T03:41:48;7.00;99.90
25092;DHT22;13082;52.374;4.946;2023-04-25T03:44:14;7.00;99.90
25092;DHT22;13082;52.374;4.946;2023-04-25T03:46:39;7.10;99.90
25092;DHT22;13082;52.374;4.946;2023-04-25T03:49:05;7.20;99.90
25092;DHT22;13082;52.374;4.946;2023-04-25T03:51:31;7.20;99.90
25092;DHT22;13082;52.374;4.946;2023-04-25T03:53:56;7.30;99.90
25092;DHT22;13082;52.374;4.946;2023-04-25T03:56:22;7.30;99.90
25092;DHT22;13082;52.374;4.946;2023-04-25T03:58:48;7.30;99.90
25092;DHT22;13082;52.374;4.946;2023-04-25T04:01:13;7.20;99.90
25092;DHT22;13082;52.374;4.946;2023-04-25T04:03:39;7.20;99.90
25092;DHT22;13082;52.374;4.946;2023-04-25T04:06:06;7.10;99.90
25092;DHT22;13082;52.374;4.946;2023-04-25T04:08:32;7.10;99.90
25092;DHT22;13082;52.374;4.946;2023-04-25T04:10:58;7.20;99.90
25092;DHT22;13082;52.374;4.946;2023-04-25T04:13:26;7.20;99.90
25092;DHT22;13082;52.374;4.946;2023-04-25T04:15:52;7.30;99.90
25092;DHT22;13082;52.374;4.946;2023-04-25T04:18:17;7.40;99.90
25092;DHT22;13082;52.374;4.946;2023-04-25T04:20:43;7.50;99.90
25092;DHT22;13082;52.374;4.946;2023-04-25T04:23:09;7.40;99.90
25092;DHT22;13082;52.374;4.946;2023-04-25T04:25:34;7.50;99.90
25092;DHT22;13082;52.374;4.946;2023-04-25T04:28:00;7.40;99.90
25092;DHT22;13082;52.374;4.946;2023-04-25T04:30:26;7.40;99.90
25092;DHT22;13082;52.374;4.946;2023-04-25T04:32:56;7.50;99.90
25092;DHT22;13082;52.374;4.946;2023-04-25T04:35:23;7.50;99.90
25092;DHT22;13082;52.374;4.946;2023-04-25T04:37:49;7.50;99.90
25092;DHT22;13082;52.374;4.946;2023-04-25T04:40:15;7.40;99.90
25092;DHT22;13082;52.374;4.946;2023-04-25T04:42:42;7.30;99.90
25092;DHT22;13082;52.374;4.946;2023-04-25T04:45:09;7.30;99.90
25092;DHT22;13082;52.374;4.946;2023-04-25T04:47:35;7.30;99.90
25092;DHT22;13082;52.374;4.946;2023-04-25T04:50:03;7.40;99.90
25092;DHT22;13082;52.374;4.946;2023-04-25T04:52:29;7.40;99.90
25092;DHT22;13082;52.374;4.946;2023-04-25T04:54:55;7.50;99.90
25092;DHT22;13082;52.374;4.946;2023-04-25T04:57:21;7.50;99.90
25092;DHT22;13082;52.374;4.946;2023-04-25T04:59:46;7.50;99.90
25092;DHT22;13082;52.374;4.946;2023-04-25T05:02:12;7.60;99.90
25092;DHT22;13082;52.374;4.946;2023-04-25T05:04:37;7.60;99.90
25092;DHT22;13082;52.374;4.946;2023-04-25T05:07:03;7.70;99.90
25092;DHT22;13082;52.374;4.946;2023-04-25T05:09:29;7.70;99.90
25092;DHT22;13082;52.374;4.946;2023-04-25T05:11:54;7.80;99.90
25092;DHT22;13082;52.374;4.946;2023-04-25T05:14:20;7.80;99.90
25092;DHT22;13082;52.374;4.946;2023-04-25T05:16:47;7.80;99.90
25092;DHT22;13082;52.374;4.946;2023-04-25T05:19:13;7.90;99.90
25092;DHT22;13082;52.374;4.946;2023-04-25T05:21:38;7.90;99.90
25092;DHT22;13082;52.374;4.946;2023-04-25T05:24:04;7.90;99.90
25092;DHT22;13082;52.374;4.946;2023-04-25T05:26:30;8.00;99.90
25092;DHT22;13082;52.374;4.946;2023-04-25T05:28:57;8.00;99.90
25092;DHT22;13082;52.374;4.946;2023-04-25T05:31:23;7.90;99.90
25092;DHT22;13082;52.374;4.946;2023-04-25T05:33:48;7.90;99.90
25092;DHT22;13082;52.374;4.946;2023-04-25T05:36:14;8.00;99.90
25092;DHT22;13082;52.374;4.946;2023-04-25T05:38:39;8.00;99.90
25092;DHT22;13082;52.374;4.946;2023-04-25T05:41:05;7.90;99.90
25092;DHT22;13082;52.374;4.946;2023-04-25T05:43:31;7.90;99.90
25092;DHT22;13082;52.374;4.946;2023-04-25T05:45:56;7.80;99.90
25092;DHT22;13082;52.374;4.946;2023-04-25T05:48:22;7.80;99.90
25092;DHT22;13082;52.374;4.946;2023-04-25T05:50:47;7.80;99.90
25092;DHT22;13082;52.374;4.946;2023-04-25T05:53:13;7.80;99.90
25092;DHT22;13082;52.374;4.946;2023-04-25T05:55:39;7.70;99.90
25092;DHT22;13082;52.374;4.946;2023-04-25T05:58:05;7.80;99.90
25092;DHT22;13082;52.374;4.946;2023-04-25T06:00:32;7.80;99.90
25092;DHT22;13082;52.374;4.946;2023-04-25T06:02:57;7.80;99.90
25092;DHT22;13082;52.374;4.946;2023-04-25T06:05:23;7.80;99.90
25092;DHT22;13082;52.374;4.946;2023-04-25T06:07:49;7.80;99.90
25092;DHT22;13082;52.374;4.946;2023-04-25T06:10:14;7.90;99.90
25092;DHT22;13082;52.374;4.946;2023-04-25T06:12:40;7.90;99.90
25092;DHT22;13082;52.374;4.946;2023-04-25T06:15:06;8.00;99.90
25092;DHT22;13082;52.374;4.946;2023-04-25T06:17:33;8.10;99.90
25092;DHT22;13082;52.374;4.946;2023-04-25T06:19:58;8.10;99.90
25092;DHT22;13082;52.374;4.946;2023-04-25T06:22:24;8.10;99.90
25092;DHT22;13082;52.374;4.946;2023-04-25T06:24:49;8.10;99.90
25092;DHT22;13082;52.374;4.946;2023-04-25T06:27:15;8.10;99.90
25092;DHT22;13082;52.374;4.946;2023-04-25T06:29:41;8.20;99.90
25092;DHT22;13082;52.374;4.946;2023-04-25T06:32:06;8.20;99.90
25092;DHT22;13082;52.374;4.946;2023-04-25T06:34:32;8.30;99.90
25092;DHT22;13082;52.374;4.946;2023-04-25T06:36:57;8.20;99.90
25092;DHT22;13082;52.374;4.946;2023-04-25T06:39:23;8.20;99.90
25092;DHT22;13082;52.374;4.946;2023-04-25T06:41:50;8.20;99.90
25092;DHT22;13082;52.374;4.946;2023-04-25T06:44:15;8.20;99.90
25092;DHT22;13082;52.374;4.946;2023-04-25T06:46:42;8.20;99.90
25092;DHT22;13082;52.374;4.946;2023-04-25T06:49:07;8.20;99.90
25092;DHT22;13082;52.374;4.946;2023-04-25T06:51:33;8.30;99.90
25092;DHT22;13082;52.374;4.946;2023-04-25T06:53:59;8.30;99.90
25092;DHT22;13082;52.374;4.946;2023-04-25T06:56:25;8.40;99.90
25092;DHT22;13082;52.374;4.946;2023-04-25T06:58:50;8.40;99.90
25092;DHT22;13082;52.374;4.946;2023-04-25T07:01:16;8.50;99.90
25092;DHT22;13082;52.374;4.946;2023-04-25T07:03:42;8.50;99.90
25092;DHT22;13082;52.374;4.946;2023-04-25T07:06:07;8.60;99.90
25092;DHT22;13082;52.374;4.946;2023-04-25T07:08:33;8.60;99.90
25092;DHT22;13082;52.374;4.946;2023-04-25T07:10:58;8.60;99.90
25092;DHT22;13082;52.374;4.946;2023-04-25T07:13:24;8.70;99.90
25092;DHT22;13082;52.374;4.946;2023-04-25T07:15:50;8.70;99.90
25092;DHT22;13082;52.374;4.946;2023-04-25T07:18:15;8.80;99.90
25092;DHT22;13082;52.374;4.946;2023-04-25T07:20:41;8.90;99.90
25092;DHT22;13082;52.374;4.946;2023-04-25T07:23:07;9.00;99.90
25092;DHT22;13082;52.374;4.946;2023-04-25T07:25:32;9.00;99.90
25092;DHT22;13082;52.374;4.946;2023-04-25T07:27:58;9.10;99.90
25092;DHT22;13082;52.374;4.946;2023-04-25T07:30:23;9.00;99.90
25092;DHT22;13082;52.374;4.946;2023-04-25T07:32:50;8.90;99.90
25092;DHT22;13082;52.374;4.946;2023-04-25T07:35:16;8.80;99.90
25092;DHT22;13082;52.374;4.946;2023-04-25T07:37:42;8.70;99.90
25092;DHT22;13082;52.374;4.946;2023-04-25T07:40:08;8.70;99.90
25092;DHT22;13082;52.374;4.946;2023-04-25T07:42:35;8.80;99.90
25092;DHT22;13082;52.374;4.946;2023-04-25T07:45:01;8.70;99.90
25092;DHT22;13082;52.374;4.946;2023-04-25T07:47:26;8.70;99.90
25092;DHT22;13082;52.374;4.946;2023-04-25T07:49:52;8.90;99.90
25092;DHT22;13082;52.374;4.946;2023-04-25T07:52:18;9.00;99.90
25092;DHT22;13082;52.374;4.946;2023-04-25T07:54:43;8.90;99.90
25092;DHT22;13082;52.374;4.946;2023-04-25T07:57:09;8.80;99.90
25092;DHT22;13082;52.374;4.946;2023-04-25T07:59:35;8.70;99.90
25092;DHT22;13082;52.374;4.946;2023-04-25T08:02:00;8.60;99.90
25092;DHT22;13082;52.374;4.946;2023-04-25T08:04:26;8.60;99.90
25092;DHT22;13082;52.374;4.946;2023-04-25T08:06:52;8.60;99.90
25092;DHT22;13082;52.374;4.946;2023-04-25T08:09:19;8.70;99.90
25092;DHT22;13082;52.374;4.946;2023-04-25T08:11:45;8.70;99.90
25092;DHT22;13082;52.374;4.946;2023-04-25T08:14:11;8.70;99.90
25092;DHT22;13082;52.374;4.946;2023-04-25T08:16:37;8.80;99.90
25092;DHT22;13082;52.374;4.946;2023-04-25T08:19:03;9.00;99.90
25092;DHT22;13082;52.374;4.946;2023-04-25T08:21:28;9.20;99.90
25092;DHT22;13082;52.374;4.946;2023-04-25T08:23:54;9.40;99.90
25092;DHT22;13082;52.374;4.946;2023-04-25T08:26:20;9.60;99.90
25092;DHT22;13082;52.374;4.946;2023-04-25T08:28:46;9.60;99.90
25092;DHT22;13082;52.374;4.946;2023-04-25T08:31:12;9.60;99.90
25092;DHT22;13082;52.374;4.946;2023-04-25T08:33:37;9.70;99.90
25092;DHT22;13082;52.374;4.946;2023-04-25T08:36:03;9.70;99.90
25092;DHT22;13082;52.374;4.946;2023-04-25T08:38:29;9.70;99.90
25092;DHT22;13082;52.374;4.946;2023-04-25T08:40:56;9.80;99.90
25092;DHT22;13082;52.374;4.946;2023-04-25T08:43:25;9.80;99.90
25092;DHT22;13082;52.374;4.946;2023-04-25T08:45:52;9.80;99.90
25092;DHT22;13082;52.374;4.946;2023-04-25T08:48:19;9.70;99.90
25092;DHT22;13082;52.374;4.946;2023-04-25T08:50:50;9.70;99.90
25092;DHT22;13082;52.374;4.946;2023-04-25T08:53:19;9.60;99.90
25092;DHT22;13082;52.374;4.946;2023-04-25T08:55:46;9.70;99.90
25092;DHT22;13082;52.374;4.946;2023-04-25T08:58:13;9.70;99.90
25092;DHT22;13082;52.374;4.946;2023-04-25T09:00:40;9.70;99.90
25092;DHT22;13082;52.374;4.946;2023-04-25T09:03:05;9.80;99.90
25092;DHT22;13082;52.374;4.946;2023-04-25T09:05:34;9.80;99.90
25092;DHT22;13082;52.374;4.946;2023-04-25T09:08:01;9.80;99.90
25092;DHT22;13082;52.374;4.946;2023-04-25T09:10:27;9.70;99.90
25092;DHT22;13082;52.374;4.946;2023-04-25T09:13:07;9.80;99.90
25092;DHT22;13082;52.374;4.946;2023-04-25T09:15:51;9.80;99.90
25092;DHT22;13082;52.374;4.946;2023-04-25T09:20:54;9.80;99.90
25092;DHT22;13082;52.374;4.946;2023-04-25T09:23:21;9.80;99.90
25092;DHT22;13082;52.374;4.946;2023-04-25T09:25:48;9.80;99.90
25092;DHT22;13082;52.374;4.946;2023-04-25T09:28:14;9.90;99.90
25092;DHT22;13082;52.374;4.946;2023-04-25T09:30:39;10.00;99.90
25092;DHT22;13082;52.374;4.946;2023-04-25T09:35:36;10.30;99.90
25092;DHT22;13082;52.374;4.946;2023-04-25T09:38:08;10.30;99.90
25092;DHT22;13082;52.374;4.946;2023-04-25T09:40:33;10.40;99.90
25092;DHT22;13082;52.374;4.946;2023-04-25T09:42:59;10.50;99.90
25092;DHT22;13082;52.374;4.946;2023-04-25T09:45:25;10.60;99.90
25092;DHT22;13082;52.374;4.946;2023-04-25T09:47:55;10.70;99.90
25092;DHT22;13082;52.374;4.946;2023-04-25T09:50:21;10.80;99.90
25092;DHT22;13082;52.374;4.946;2023-04-25T09:53:03;10.80;99.90
25092;DHT22;13082;52.374;4.946;2023-04-25T09:55:30;10.80;99.90
25092;DHT22;13082;52.374;4.946;2023-04-25T09:57:58;10.90;99.90
25092;DHT22;13082;52.374;4.946;2023-04-25T10:00:25;11.00;99.90
25092;DHT22;13082;52.374;4.946;2023-04-25T10:02:52;11.00;99.90
25092;DHT22;13082;52.374;4.946;2023-04-25T10:05:19;11.00;99.90
25092;DHT22;13082;52.374;4.946;2023-04-25T10:07:45;11.00;99.90
25092;DHT22;13082;52.374;4.946;2023-04-25T10:10:12;10.70;99.90
25092;DHT22;13082;52.374;4.946;2023-04-25T10:12:38;10.00;99.90
25092;DHT22;13082;52.374;4.946;2023-04-25T10:15:06;9.80;99.90
25092;DHT22;13082;52.374;4.946;2023-04-25T10:17:34;9.60;99.90
25092;DHT22;13082;52.374;4.946;2023-04-25T10:20:02;9.40;99.90
25092;DHT22;13082;52.374;4.946;2023-04-25T10:22:42;9.20;99.90
25092;DHT22;13082;52.374;4.946;2023-04-25T10:25:08;8.90;99.90
25092;DHT22;13082;52.374;4.946;2023-04-25T10:27:35;8.80;99.90
25092;DHT22;13082;52.374;4.946;2023-04-25T10:30:14;8.80;99.90
25092;DHT22;13082;52.374;4.946;2023-04-25T10:32:44;8.90;99.90
25092;DHT22;13082;52.374;4.946;2023-04-25T10:35:19;8.90;99.90
25092;DHT22;13082;52.374;4.946;2023-04-25T10:38:13;9.00;99.90
25092;DHT22;13082;52.374;4.946;2023-04-25T10:40:39;9.20;99.90
25092;DHT22;13082;52.374;4.946;2023-04-25T10:45:56;10.00;99.90
25092;DHT22;13082;52.374;4.946;2023-04-25T10:48:25;10.20;99.90
25092;DHT22;13082;52.374;4.946;2023-04-25T10:51:07;10.30;99.90
25092;DHT22;13082;52.374;4.946;2023-04-25T10:53:33;10.50;99.90
25092;DHT22;13082;52.374;4.946;2023-04-25T10:55:59;10.60;99.90
25092;DHT22;13082;52.374;4.946;2023-04-25T10:58:26;10.30;99.90
25092;DHT22;13082;52.374;4.946;2023-04-25T11:00:51;9.70;99.90
25092;DHT22;13082;52.374;4.946;2023-04-25T11:03:17;9.20;99.90
25092;DHT22;13082;52.374;4.946;2023-04-25T11:05:47;8.90;99.90
25092;DHT22;13082;52.374;4.946;2023-04-25T11:08:22;8.70;99.90
25092;DHT22;13082;52.374;4.946;2023-04-25T11:10:51;8.70;99.90
25092;DHT22;13082;52.374;4.946;2023-04-25T11:13:16;8.80;99.90
25092;DHT22;13082;52.374;4.946;2023-04-25T11:15:43;8.80;99.90
25092;DHT22;13082;52.374;4.946;2023-04-25T11:18:09;9.00;99.90
25092;DHT22;13082;52.374;4.946;2023-04-25T11:20:34;9.30;99.90
25092;DHT22;13082;52.374;4.946;2023-04-25T11:23:00;9.50;99.90
25092;DHT22;13082;52.374;4.946;2023-04-25T11:25:26;9.80;99.90
25092;DHT22;13082;52.374;4.946;2023-04-25T11:27:57;10.00;99.90
25092;DHT22;13082;52.374;4.946;2023-04-25T11:30:24;10.20;99.90
25092;DHT22;13082;52.374;4.946;2023-04-25T11:32:51;10.30;99.90
25092;DHT22;13082;52.374;4.946;2023-04-25T11:35:21;10.20;99.90
25092;DHT22;13082;52.374;4.946;2023-04-25T11:37:48;10.30;99.90
25092;DHT22;13082;52.374;4.946;2023-04-25T11:40:15;10.30;99.90
25092;DHT22;13082;52.374;4.946;2023-04-25T11:42:45;10.30;99.90
25092;DHT22;13082;52.374;4.946;2023-04-25T11:45:11;10.30;99.90
25092;DHT22;13082;52.374;4.946;2023-04-25T11:47:38;10.40;99.90
25092;DHT22;13082;52.374;4.946;2023-04-25T11:50:06;10.50;99.90
25092;DHT22;13082;52.374;4.946;2023-04-25T11:52:42;10.70;99.90
25092;DHT22;13082;52.374;4.946;2023-04-25T11:55:09;10.80;99.90
25092;DHT22;13082;52.374;4.946;2023-04-25T11:57:38;10.80;99.90
25092;DHT22;13082;52.374;4.946;2023-04-25T12:00:14;10.80;99.90
25092;DHT22;13082;52.374;4.946;2023-04-25T12:02:46;10.70;99.90
25092;DHT22;13082;52.374;4.946;2023-04-25T12:05:13;10.40;99.90
25092;DHT22;13082;52.374;4.946;2023-04-25T12:07:39;10.30;99.90
25092;DHT22;13082;52.374;4.946;2023-04-25T12:10:11;10.20;99.90
25092;DHT22;13082;52.374;4.946;2023-04-25T12:12:38;10.30;99.90
25092;DHT22;13082;52.374;4.946;2023-04-25T12:17:41;10.50;99.90
25092;DHT22;13082;52.374;4.946;2023-04-25T12:20:13;10.70;99.90
25092;DHT22;13082;52.374;4.946;2023-04-25T12:22:50;10.80;99.90
25092;DHT22;13082;52.374;4.946;2023-04-25T12:25:34;10.90;99.90
25092;DHT22;13082;52.374;4.946;2023-04-25T12:30:59;11.00;99.90
25092;DHT22;13082;52.374;4.946;2023-04-25T12:33:27;11.20;99.90
25092;DHT22;13082;52.374;4.946;2023-04-25T12:35:54;11.20;99.90
25092;DHT22;13082;52.374;4.946;2023-04-25T12:38:31;11.10;99.90
25092;DHT22;13082;52.374;4.946;2023-04-25T12:40:58;11.10;99.90
25092;DHT22;13082;52.374;4.946;2023-04-25T12:43:24;11.00;99.90
25092;DHT22;13082;52.374;4.946;2023-04-25T12:45:54;11.10;99.90
25092;DHT22;13082;52.374;4.946;2023-04-25T12:48:20;11.30;99.90
25092;DHT22;13082;52.374;4.946;2023-04-25T12:50:46;11.40;99.90
25092;DHT22;13082;52.374;4.946;2023-04-25T12:53:15;11.40;99.90
25092;DHT22;13082;52.374;4.946;2023-04-25T12:55:41;11.20;99.90
25092;DHT22;13082;52.374;4.946;2023-04-25T12:58:07;11.20;99.90
25092;DHT22;13082;52.374;4.946;2023-04-25T13:00:33;11.30;99.90
25092;DHT22;13082;52.374;4.946;2023-04-25T13:02:59;11.20;99.90
25092;DHT22;13082;52.374;4.946;2023-04-25T13:05:25;11.20;99.90
25092;DHT22;13082;52.374;4.946;2023-04-25T13:07:51;11.10;99.90
25092;DHT22;13082;52.374;4.946;2023-04-25T13:10:17;11.00;99.90
25092;DHT22;13082;52.374;4.946;2023-04-25T13:12:43;11.00;99.90
25092;DHT22;13082;52.374;4.946;2023-04-25T13:15:09;10.90;99.90
25092;DHT22;13082;52.374;4.946;2023-04-25T13:17:37;11.00;99.90
25092;DHT22;13082;52.374;4.946;2023-04-25T13:20:04;11.10;99.90
25092;DHT22;13082;52.374;4.946;2023-04-25T13:22:32;11.20;99.90
25092;DHT22;13082;52.374;4.946;2023-04-25T13:24:57;11.30;99.90
25092;DHT22;13082;52.374;4.946;2023-04-25T13:27:23;11.20;99.90
25092;DHT22;13082;52.374;4.946;2023-04-25T13:29:49;11.10;99.90
25092;DHT22;13082;52.374;4.946;2023-04-25T13:32:14;11.10;99.90
25092;DHT22;13082;52.374;4.946;2023-04-25T13:34:40;11.10;99.90
25092;DHT22;13082;52.374;4.946;2023-04-25T13:37:06;11.00;99.90
25092;DHT22;13082;52.374;4.946;2023-04-25T13:39:31;11.00;99.90
25092;DHT22;13082;52.374;4.946;2023-04-25T13:41:57;11.00;99.90
25092;DHT22;13082;52.374;4.946;2023-04-25T13:44:22;11.00;99.90
25092;DHT22;13082;52.374;4.946;2023-04-25T13:46:48;11.10;99.90
25092;DHT22;13082;52.374;4.946;2023-04-25T13:49:14;11.30;99.90
25092;DHT22;13082;52.374;4.946;2023-04-25T13:51:40;11.40;99.90
25092;DHT22;13082;52.374;4.946;2023-04-25T13:54:07;11.50;99.90
25092;DHT22;13082;52.374;4.946;2023-04-25T13:56:33;11.40;99.90
25092;DHT22;13082;52.374;4.946;2023-04-25T13:58:58;11.10;99.90
25092;DHT22;13082;52.374;4.946;2023-04-25T14:01:24;10.80;99.90
25092;DHT22;13082;52.374;4.946;2023-04-25T14:03:50;10.70;99.90
25092;DHT22;13082;52.374;4.946;2023-04-25T14:06:15;10.80;99.90
25092;DHT22;13082;52.374;4.946;2023-04-25T14:08:48;11.00;99.90
25092;DHT22;13082;52.374;4.946;2023-04-25T14:11:14;11.30;99.90
25092;DHT22;13082;52.374;4.946;2023-04-25T14:13:39;11.50;99.90
25092;DHT22;13082;52.374;4.946;2023-04-25T14:16:05;11.60;99.90
25092;DHT22;13082;52.374;4.946;2023-04-25T14:18:31;11.60;99.90
25092;DHT22;13082;52.374;4.946;2023-04-25T14:20:56;11.20;99.90
25092;DHT22;13082;52.374;4.946;2023-04-25T14:23:22;10.60;99.90
25092;DHT22;13082;52.374;4.946;2023-04-25T14:25:47;10.30;99.90
25092;DHT22;13082;52.374;4.946;2023-04-25T14:28:13;10.00;99.90
25092;DHT22;13082;52.374;4.946;2023-04-25T14:30:39;9.90;99.90
25092;DHT22;13082;52.374;4.946;2023-04-25T14:33:04;9.80;99.90
25092;DHT22;13082;52.374;4.946;2023-04-25T14:35:30;9.90;99.90
25092;DHT22;13082;52.374;4.946;2023-04-25T14:37:56;10.00;99.90
25092;DHT22;13082;52.374;4.946;2023-04-25T14:40:22;10.20;99.90
25092;DHT22;13082;52.374;4.946;2023-04-25T14:42:48;10.40;99.90
25092;DHT22;13082;52.374;4.946;2023-04-25T14:45:15;10.50;99.90
25092;DHT22;13082;52.374;4.946;2023-04-25T14:47:40;10.60;99.90
25092;DHT22;13082;52.374;4.946;2023-04-25T14:50:07;10.60;99.90
25092;DHT22;13082;52.374;4.946;2023-04-25T14:52:33;10.70;99.90
25092;DHT22;13082;52.374;4.946;2023-04-25T14:54:59;10.80;99.90
25092;DHT22;13082;52.374;4.946;2023-04-25T14:57:31;11.00;99.90
25092;DHT22;13082;52.374;4.946;2023-04-25T14:59:57;11.10;99.90
25092;DHT22;13082;52.374;4.946;2023-04-25T15:02:24;11.10;99.90
25092;DHT22;13082;52.374;4.946;2023-04-25T15:04:49;11.00;99.90
25092;DHT22;13082;52.374;4.946;2023-04-25T15:07:15;11.00;99.90
25092;DHT22;13082;52.374;4.946;2023-04-25T15:09:41;11.00;99.90
25092;DHT22;13082;52.374;4.946;2023-04-25T15:12:07;11.00;99.90
25092;DHT22;13082;52.374;4.946;2023-04-25T15:14:33;10.90;99.90
25092;DHT22;13082;52.374;4.946;2023-04-25T15:16:59;10.90;99.90
25092;DHT22;13082;52.374;4.946;2023-04-25T15:19:25;10.90;99.90
25092;DHT22;13082;52.374;4.946;2023-04-25T15:21:51;10.90;99.90
25092;DHT22;13082;52.374;4.946;2023-04-25T15:24:17;10.90;99.90
25092;DHT22;13082;52.374;4.946;2023-04-25T15:26:43;10.90;99.90
25092;DHT22;13082;52.374;4.946;2023-04-25T15:29:10;10.90;99.90
25092;DHT22;13082;52.374;4.946;2023-04-25T15:31:37;10.90;99.90
25092;DHT22;13082;52.374;4.946;2023-04-25T15:34:03;10.80;99.90
25092;DHT22;13082;52.374;4.946;2023-04-25T15:36:29;10.60;99.90
25092;DHT22;13082;52.374;4.946;2023-04-25T15:38:54;10.50;99.90
25092;DHT22;13082;52.374;4.946;2023-04-25T15:41:21;10.40;99.90
25092;DHT22;13082;52.374;4.946;2023-04-25T15:43:47;10.40;99.90
25092;DHT22;13082;52.374;4.946;2023-04-25T15:46:13;10.40;99.90
25092;DHT22;13082;52.374;4.946;2023-04-25T15:48:38;10.50;99.90
25092;DHT22;13082;52.374;4.946;2023-04-25T15:51:04;10.50;99.90